sensor_id;sensor_type;location;lat;lon;timestamp;P1;durP1;ratioP1;P2;durP2;ratioP2
72649;SDS011;61467;50.674;4.618;2024-01-07T00:01:02;11.82;;;5.75;;
72649;SDS011;61467;50.674;4.618;2024-01-07T00:03:29;11.85;;;6.03;;
72649;SDS011;61467;50.674;4.618;2024-01-07T00:05:57;15.77;;;6.68;;
72649;SDS011;61467;50.674;4.618;2024-01-07T00:08:24;13.90;;;6.43;;
72649;SDS011;61467;50.674;4.618;2024-01-07T00:10:51;13.07;;;6.20;;
72649;SDS011;61467;50.674;4.618;2024-01-07T00:13:18;15.77;;;6.82;;
72649;SDS011;61467;50.674;4.618;2024-01-07T00:15:45;12.57;;;6.47;;
72649;SDS011;61467;50.674;4.618;2024-01-07T00:18:11;14.30;;;6.40;;
72649;SDS011;61467;50.674;4.618;2024-01-07T00:20:38;13.17;;;6.67;;
72649;SDS011;61467;50.674;4.618;2024-01-07T00:23:06;14.30;;;6.50;;
72649;SDS011;61467;50.674;4.618;2024-01-07T00:25:33;16.38;;;7.88;;
72649;SDS011;61467;50.674;4.618;2024-01-07T00:27:59;16.70;;;6.75;;
72649;SDS011;61467;50.674;4.618;2024-01-07T00:30:26;17.00;;;7.57;;
72649;SDS011;61467;50.674;4.618;2024-01-07T00:32:54;13.57;;;6.47;;
72649;SDS011;61467;50.674;4.618;2024-01-07T00:35:21;13.95;;;6.65;;
72649;SDS011;61467;50.674;4.618;2024-01-07T00:37:48;16.42;;;7.13;;
72649;SDS011;61467;50.674;4.618;2024-01-07T00:40:16;16.75;;;6.97;;
72649;SDS011;61467;50.674;4.618;2024-01-07T00:42:43;14.70;;;7.45;;
72649;SDS011;61467;50.674;4.618;2024-01-07T00:45:10;15.03;;;7.37;;
72649;SDS011;61467;50.674;4.618;2024-01-07T00:47:36;15.50;;;7.85;;
72649;SDS011;61467;50.674;4.618;2024-01-07T00:50:03;14.75;;;7.13;;
72649;SDS011;61467;50.674;4.618;2024-01-07T00:52:31;15.38;;;7.35;;
72649;SDS011;61467;50.674;4.618;2024-01-07T00:54:58;16.05;;;7.88;;
72649;SDS011;61467;50.674;4.618;2024-01-07T00:57:27;13.57;;;6.90;;
72649;SDS011;61467;50.674;4.618;2024-01-07T00:59:53;14.95;;;7.43;;
72649;SDS011;61467;50.674;4.618;2024-01-07T01:02:20;17.52;;;8.55;;
72649;SDS011;61467;50.674;4.618;2024-01-07T01:04:47;14.38;;;6.65;;
72649;SDS011;61467;50.674;4.618;2024-01-07T01:07:14;13.93;;;7.40;;
72649;SDS011;61467;50.674;4.618;2024-01-07T01:09:41;17.03;;;8.20;;
72649;SDS011;61467;50.674;4.618;2024-01-07T01:12:08;15.48;;;7.60;;
72649;SDS011;61467;50.674;4.618;2024-01-07T01:14:36;16.48;;;7.95;;
72649;SDS011;61467;50.674;4.618;2024-01-07T01:17:03;13.85;;;6.97;;
72649;SDS011;61467;50.674;4.618;2024-01-07T01:19:30;15.43;;;7.55;;
72649;SDS011;61467;50.674;4.618;2024-01-07T01:21:57;16.77;;;7.97;;
72649;SDS011;61467;50.674;4.618;2024-01-07T01:24:25;15.52;;;8.18;;
72649;SDS011;61467;50.674;4.618;2024-01-07T01:26:52;17.90;;;8.18;;
72649;SDS011;61467;50.674;4.618;2024-01-07T01:29:18;19.15;;;8.43;;
72649;SDS011;61467;50.674;4.618;2024-01-07T01:31:47;15.10;;;7.50;;
72649;SDS011;61467;50.674;4.618;2024-01-07T01:34:13;15.63;;;8.13;;
72649;SDS011;61467;50.674;4.618;2024-01-07T01:36:40;17.67;;;8.43;;
72649;SDS011;61467;50.674;4.618;2024-01-07T01:39:07;16.52;;;8.57;;
72649;SDS011;61467;50.674;4.618;2024-01-07T01:41:34;17.25;;;8.98;;
72649;SDS011;61467;50.674;4.618;2024-01-07T01:44:01;16.77;;;7.93;;
72649;SDS011;61467;50.674;4.618;2024-01-07T01:46:28;18.13;;;8.20;;
72649;SDS011;61467;50.674;4.618;2024-01-07T01:48:57;15.80;;;8.15;;
72649;SDS011;61467;50.674;4.618;2024-01-07T01:51:25;17.00;;;8.80;;
72649;SDS011;61467;50.674;4.618;2024-01-07T01:53:52;14.73;;;7.68;;
72649;SDS011;61467;50.674;4.618;2024-01-07T01:56:20;18.25;;;9.50;;
72649;SDS011;61467;50.674;4.618;2024-01-07T01:58:48;16.83;;;8.73;;
72649;SDS011;61467;50.674;4.618;2024-01-07T02:01:15;19.38;;;9.02;;
72649;SDS011;61467;50.674;4.618;2024-01-07T02:03:42;15.85;;;7.90;;
72649;SDS011;61467;50.674;4.618;2024-01-07T02:06:10;16.98;;;8.82;;
72649;SDS011;61467;50.674;4.618;2024-01-07T02:08:37;17.25;;;8.63;;
72649;SDS011;61467;50.674;4.618;2024-01-07T02:11:14;14.43;;;7.20;;
72649;SDS011;61467;50.674;4.618;2024-01-07T02:13:41;16.70;;;8.63;;
72649;SDS011;61467;50.674;4.618;2024-01-07T02:16:08;16.30;;;7.43;;
72649;SDS011;61467;50.674;4.618;2024-01-07T02:18:35;16.05;;;7.15;;
72649;SDS011;61467;50.674;4.618;2024-01-07T02:21:03;16.60;;;7.80;;
72649;SDS011;61467;50.674;4.618;2024-01-07T02:23:32;15.83;;;8.10;;
72649;SDS011;61467;50.674;4.618;2024-01-07T02:26:00;16.80;;;8.15;;
72649;SDS011;61467;50.674;4.618;2024-01-07T02:28:27;17.45;;;8.27;;
72649;SDS011;61467;50.674;4.618;2024-01-07T02:30:53;16.23;;;8.32;;
72649;SDS011;61467;50.674;4.618;2024-01-07T02:33:20;15.85;;;8.40;;
72649;SDS011;61467;50.674;4.618;2024-01-07T02:35:47;13.77;;;7.40;;
72649;SDS011;61467;50.674;4.618;2024-01-07T02:38:14;16.23;;;6.80;;
72649;SDS011;61467;50.674;4.618;2024-01-07T02:40:41;15.98;;;7.55;;
72649;SDS011;61467;50.674;4.618;2024-01-07T02:43:09;16.98;;;7.88;;
72649;SDS011;61467;50.674;4.618;2024-01-07T02:45:36;16.40;;;7.32;;
72649;SDS011;61467;50.674;4.618;2024-01-07T02:48:03;12.90;;;6.93;;
72649;SDS011;61467;50.674;4.618;2024-01-07T02:50:31;16.83;;;7.32;;
72649;SDS011;61467;50.674;4.618;2024-01-07T02:52:58;15.77;;;7.60;;
72649;SDS011;61467;50.674;4.618;2024-01-07T02:55:25;16.10;;;6.63;;
72649;SDS011;61467;50.674;4.618;2024-01-07T02:57:52;15.20;;;7.90;;
72649;SDS011;61467;50.674;4.618;2024-01-07T03:00:20;14.67;;;7.90;;
72649;SDS011;61467;50.674;4.618;2024-01-07T03:02:47;16.75;;;7.90;;
72649;SDS011;61467;50.674;4.618;2024-01-07T03:05:14;17.27;;;7.85;;
72649;SDS011;61467;50.674;4.618;2024-01-07T03:07:41;18.35;;;8.05;;
72649;SDS011;61467;50.674;4.618;2024-01-07T03:10:08;14.95;;;7.22;;
72649;SDS011;61467;50.674;4.618;2024-01-07T03:12:35;17.20;;;8.13;;
72649;SDS011;61467;50.674;4.618;2024-01-07T03:15:02;18.65;;;8.60;;
72649;SDS011;61467;50.674;4.618;2024-01-07T03:17:31;21.25;;;9.88;;
72649;SDS011;61467;50.674;4.618;2024-01-07T03:19:57;22.50;;;10.45;;
72649;SDS011;61467;50.674;4.618;2024-01-07T03:22:24;23.45;;;10.45;;
72649;SDS011;61467;50.674;4.618;2024-01-07T03:24:51;26.33;;;11.17;;
72649;SDS011;61467;50.674;4.618;2024-01-07T03:27:18;24.60;;;10.63;;
72649;SDS011;61467;50.674;4.618;2024-01-07T03:29:45;22.15;;;10.50;;
72649;SDS011;61467;50.674;4.618;2024-01-07T03:32:11;21.83;;;10.25;;
72649;SDS011;61467;50.674;4.618;2024-01-07T03:34:40;26.13;;;10.57;;
72649;SDS011;61467;50.674;4.618;2024-01-07T03:37:06;24.23;;;10.37;;
72649;SDS011;61467;50.674;4.618;2024-01-07T03:39:33;22.75;;;10.75;;
72649;SDS011;61467;50.674;4.618;2024-01-07T03:42:00;23.23;;;11.13;;
72649;SDS011;61467;50.674;4.618;2024-01-07T03:44:27;23.92;;;11.35;;
72649;SDS011;61467;50.674;4.618;2024-01-07T03:46:54;25.50;;;12.88;;
72649;SDS011;61467;50.674;4.618;2024-01-07T03:49:21;26.93;;;10.83;;
72649;SDS011;61467;50.674;4.618;2024-01-07T03:51:49;27.38;;;11.55;;
72649;SDS011;61467;50.674;4.618;2024-01-07T03:54:16;25.40;;;12.48;;
72649;SDS011;61467;50.674;4.618;2024-01-07T03:56:43;27.08;;;12.43;;
72649;SDS011;61467;50.674;4.618;2024-01-07T03:59:09;28.15;;;12.77;;
72649;SDS011;61467;50.674;4.618;2024-01-07T04:01:36;25.53;;;11.10;;
72649;SDS011;61467;50.674;4.618;2024-01-07T04:04:03;24.20;;;11.40;;
72649;SDS011;61467;50.674;4.618;2024-01-07T04:06:31;30.95;;;12.27;;
72649;SDS011;61467;50.674;4.618;2024-01-07T04:09:00;27.75;;;12.40;;
72649;SDS011;61467;50.674;4.618;2024-01-07T04:11:28;24.75;;;12.00;;
72649;SDS011;61467;50.674;4.618;2024-01-07T04:13:55;25.87;;;11.90;;
72649;SDS011;61467;50.674;4.618;2024-01-07T04:16:21;26.63;;;12.65;;
72649;SDS011;61467;50.674;4.618;2024-01-07T04:18:48;27.45;;;12.57;;
72649;SDS011;61467;50.674;4.618;2024-01-07T04:21:15;26.50;;;12.00;;
72649;SDS011;61467;50.674;4.618;2024-01-07T04:23:42;28.20;;;13.02;;
72649;SDS011;61467;50.674;4.618;2024-01-07T04:26:11;30.90;;;12.63;;
72649;SDS011;61467;50.674;4.618;2024-01-07T04:28:39;29.13;;;12.32;;
72649;SDS011;61467;50.674;4.618;2024-01-07T04:31:07;26.17;;;11.75;;
72649;SDS011;61467;50.674;4.618;2024-01-07T04:33:34;27.77;;;12.95;;
72649;SDS011;61467;50.674;4.618;2024-01-07T04:36:01;28.33;;;13.18;;
72649;SDS011;61467;50.674;4.618;2024-01-07T04:38:29;28.47;;;12.40;;
72649;SDS011;61467;50.674;4.618;2024-01-07T04:40:56;30.13;;;13.10;;
72649;SDS011;61467;50.674;4.618;2024-01-07T04:43:24;25.30;;;12.27;;
72649;SDS011;61467;50.674;4.618;2024-01-07T04:45:51;25.83;;;12.05;;
72649;SDS011;61467;50.674;4.618;2024-01-07T04:48:17;28.05;;;12.20;;
72649;SDS011;61467;50.674;4.618;2024-01-07T04:50:44;27.80;;;11.80;;
72649;SDS011;61467;50.674;4.618;2024-01-07T04:53:11;31.02;;;12.65;;
72649;SDS011;61467;50.674;4.618;2024-01-07T04:55:38;27.98;;;12.65;;
72649;SDS011;61467;50.674;4.618;2024-01-07T04:58:05;26.45;;;11.88;;
72649;SDS011;61467;50.674;4.618;2024-01-07T05:00:33;25.02;;;11.18;;
72649;SDS011;61467;50.674;4.618;2024-01-07T05:03:00;25.73;;;11.43;;
72649;SDS011;61467;50.674;4.618;2024-01-07T05:05:27;28.75;;;12.98;;
72649;SDS011;61467;50.674;4.618;2024-01-07T05:07:54;28.70;;;11.77;;
72649;SDS011;61467;50.674;4.618;2024-01-07T05:10:24;28.67;;;12.30;;
72649;SDS011;61467;50.674;4.618;2024-01-07T05:12:51;28.08;;;12.05;;
72649;SDS011;61467;50.674;4.618;2024-01-07T05:15:17;26.67;;;11.43;;
72649;SDS011;61467;50.674;4.618;2024-01-07T05:17:45;29.17;;;11.82;;
72649;SDS011;61467;50.674;4.618;2024-01-07T05:20:14;25.70;;;11.80;;
72649;SDS011;61467;50.674;4.618;2024-01-07T05:22:41;28.80;;;11.60;;
72649;SDS011;61467;50.674;4.618;2024-01-07T05:25:08;30.98;;;12.23;;
72649;SDS011;61467;50.674;4.618;2024-01-07T05:27:35;28.00;;;12.13;;
72649;SDS011;61467;50.674;4.618;2024-01-07T05:30:02;31.83;;;13.27;;
72649;SDS011;61467;50.674;4.618;2024-01-07T05:32:30;29.95;;;12.82;;
72649;SDS011;61467;50.674;4.618;2024-01-07T05:34:58;25.92;;;11.95;;
72649;SDS011;61467;50.674;4.618;2024-01-07T05:37:25;33.33;;;12.20;;
72649;SDS011;61467;50.674;4.618;2024-01-07T05:39:51;29.97;;;12.57;;
72649;SDS011;61467;50.674;4.618;2024-01-07T05:42:18;27.35;;;11.32;;
72649;SDS011;61467;50.674;4.618;2024-01-07T05:44:45;27.92;;;11.95;;
72649;SDS011;61467;50.674;4.618;2024-01-07T05:47:12;36.33;;;12.77;;
72649;SDS011;61467;50.674;4.618;2024-01-07T05:49:38;28.30;;;12.95;;
72649;SDS011;61467;50.674;4.618;2024-01-07T05:52:07;29.60;;;11.57;;
72649;SDS011;61467;50.674;4.618;2024-01-07T05:54:33;26.10;;;10.43;;
72649;SDS011;61467;50.674;4.618;2024-01-07T05:57:00;25.98;;;11.05;;
72649;SDS011;61467;50.674;4.618;2024-01-07T05:59:27;28.65;;;12.25;;
72649;SDS011;61467;50.674;4.618;2024-01-07T06:01:57;24.00;;;10.98;;
72649;SDS011;61467;50.674;4.618;2024-01-07T06:04:24;27.20;;;10.30;;
72649;SDS011;61467;50.674;4.618;2024-01-07T06:06:51;27.27;;;11.65;;
72649;SDS011;61467;50.674;4.618;2024-01-07T06:09:19;26.65;;;11.57;;
72649;SDS011;61467;50.674;4.618;2024-01-07T06:11:46;27.50;;;12.18;;
72649;SDS011;61467;50.674;4.618;2024-01-07T06:14:13;29.17;;;11.00;;
72649;SDS011;61467;50.674;4.618;2024-01-07T06:16:40;25.97;;;10.23;;
72649;SDS011;61467;50.674;4.618;2024-01-07T06:19:08;27.70;;;11.68;;
72649;SDS011;61467;50.674;4.618;2024-01-07T06:21:35;28.65;;;11.63;;
72649;SDS011;61467;50.674;4.618;2024-01-07T06:24:01;28.67;;;12.30;;
72649;SDS011;61467;50.674;4.618;2024-01-07T06:26:30;28.13;;;11.80;;
72649;SDS011;61467;50.674;4.618;2024-01-07T06:28:57;26.87;;;11.17;;
72649;SDS011;61467;50.674;4.618;2024-01-07T06:31:24;23.67;;;11.27;;
72649;SDS011;61467;50.674;4.618;2024-01-07T06:33:51;24.77;;;10.73;;
72649;SDS011;61467;50.674;4.618;2024-01-07T06:36:20;27.20;;;12.45;;
72649;SDS011;61467;50.674;4.618;2024-01-07T06:38:48;26.77;;;11.30;;
72649;SDS011;61467;50.674;4.618;2024-01-07T06:41:14;26.87;;;11.13;;
72649;SDS011;61467;50.674;4.618;2024-01-07T06:43:44;23.45;;;10.48;;
72649;SDS011;61467;50.674;4.618;2024-01-07T06:46:11;25.38;;;11.73;;
72649;SDS011;61467;50.674;4.618;2024-01-07T06:48:37;28.55;;;12.27;;
72649;SDS011;61467;50.674;4.618;2024-01-07T06:51:06;24.58;;;11.68;;
72649;SDS011;61467;50.674;4.618;2024-01-07T06:53:32;23.67;;;10.73;;
72649;SDS011;61467;50.674;4.618;2024-01-07T06:55:59;26.63;;;11.48;;
72649;SDS011;61467;50.674;4.618;2024-01-07T06:58:26;27.33;;;11.68;;
72649;SDS011;61467;50.674;4.618;2024-01-07T07:00:54;24.80;;;10.55;;
72649;SDS011;61467;50.674;4.618;2024-01-07T07:03:21;24.13;;;10.60;;
72649;SDS011;61467;50.674;4.618;2024-01-07T07:05:48;23.60;;;10.10;;
72649;SDS011;61467;50.674;4.618;2024-01-07T07:08:14;26.05;;;10.82;;
72649;SDS011;61467;50.674;4.618;2024-01-07T07:10:41;25.83;;;10.50;;
72649;SDS011;61467;50.674;4.618;2024-01-07T07:13:08;25.77;;;10.15;;
72649;SDS011;61467;50.674;4.618;2024-01-07T07:15:35;20.95;;;9.88;;
72649;SDS011;61467;50.674;4.618;2024-01-07T07:18:03;26.40;;;10.97;;
72649;SDS011;61467;50.674;4.618;2024-01-07T07:20:31;24.55;;;10.02;;
72649;SDS011;61467;50.674;4.618;2024-01-07T07:22:58;22.10;;;9.55;;
72649;SDS011;61467;50.674;4.618;2024-01-07T07:25:25;24.08;;;10.93;;
72649;SDS011;61467;50.674;4.618;2024-01-07T07:27:51;26.55;;;11.55;;
72649;SDS011;61467;50.674;4.618;2024-01-07T07:30:18;22.27;;;10.10;;
72649;SDS011;61467;50.674;4.618;2024-01-07T07:32:45;28.42;;;11.10;;
72649;SDS011;61467;50.674;4.618;2024-01-07T07:35:13;24.63;;;10.43;;
72649;SDS011;61467;50.674;4.618;2024-01-07T07:37:40;28.17;;;9.98;;
72649;SDS011;61467;50.674;4.618;2024-01-07T07:40:08;27.50;;;11.57;;
72649;SDS011;61467;50.674;4.618;2024-01-07T07:42:38;32.40;;;11.03;;
72649;SDS011;61467;50.674;4.618;2024-01-07T07:45:05;33.10;;;12.32;;
72649;SDS011;61467;50.674;4.618;2024-01-07T07:47:33;30.63;;;11.93;;
72649;SDS011;61467;50.674;4.618;2024-01-07T07:50:00;32.53;;;12.38;;
72649;SDS011;61467;50.674;4.618;2024-01-07T07:52:28;34.72;;;12.65;;
72649;SDS011;61467;50.674;4.618;2024-01-07T07:54:55;34.67;;;13.23;;
72649;SDS011;61467;50.674;4.618;2024-01-07T07:57:22;32.22;;;12.20;;
72649;SDS011;61467;50.674;4.618;2024-01-07T07:59:50;37.63;;;13.85;;
72649;SDS011;61467;50.674;4.618;2024-01-07T08:02:17;33.35;;;13.68;;
72649;SDS011;61467;50.674;4.618;2024-01-07T08:04:44;33.47;;;13.07;;
72649;SDS011;61467;50.674;4.618;2024-01-07T08:07:10;37.97;;;12.97;;
72649;SDS011;61467;50.674;4.618;2024-01-07T08:09:39;34.35;;;12.23;;
72649;SDS011;61467;50.674;4.618;2024-01-07T08:12:06;34.47;;;13.02;;
72649;SDS011;61467;50.674;4.618;2024-01-07T08:14:33;32.47;;;12.98;;
72649;SDS011;61467;50.674;4.618;2024-01-07T08:17:00;36.53;;;12.40;;
72649;SDS011;61467;50.674;4.618;2024-01-07T08:19:29;31.83;;;13.23;;
72649;SDS011;61467;50.674;4.618;2024-01-07T08:21:56;34.92;;;12.85;;
72649;SDS011;61467;50.674;4.618;2024-01-07T08:24:23;31.83;;;13.52;;
72649;SDS011;61467;50.674;4.618;2024-01-07T08:26:51;29.38;;;10.90;;
72649;SDS011;61467;50.674;4.618;2024-01-07T08:29:19;32.20;;;11.95;;
72649;SDS011;61467;50.674;4.618;2024-01-07T08:31:46;28.53;;;12.13;;
72649;SDS011;61467;50.674;4.618;2024-01-07T08:34:13;28.08;;;11.45;;
72649;SDS011;61467;50.674;4.618;2024-01-07T08:36:41;32.28;;;11.65;;
72649;SDS011;61467;50.674;4.618;2024-01-07T08:39:07;26.42;;;10.45;;
72649;SDS011;61467;50.674;4.618;2024-01-07T08:41:35;25.50;;;11.52;;
72649;SDS011;61467;50.674;4.618;2024-01-07T08:44:03;27.50;;;11.03;;
72649;SDS011;61467;50.674;4.618;2024-01-07T08:46:30;27.42;;;10.52;;
72649;SDS011;61467;50.674;4.618;2024-01-07T08:48:57;26.88;;;11.00;;
72649;SDS011;61467;50.674;4.618;2024-01-07T08:51:33;26.55;;;10.32;;
72649;SDS011;61467;50.674;4.618;2024-01-07T08:54:00;29.13;;;10.93;;
72649;SDS011;61467;50.674;4.618;2024-01-07T08:56:27;27.17;;;11.33;;
72649;SDS011;61467;50.674;4.618;2024-01-07T08:58:54;25.23;;;11.02;;
72649;SDS011;61467;50.674;4.618;2024-01-07T09:01:22;29.23;;;12.25;;
72649;SDS011;61467;50.674;4.618;2024-01-07T09:03:51;27.88;;;11.52;;
72649;SDS011;61467;50.674;4.618;2024-01-07T09:06:18;23.02;;;10.73;;
72649;SDS011;61467;50.674;4.618;2024-01-07T09:08:45;25.50;;;11.70;;
72649;SDS011;61467;50.674;4.618;2024-01-07T09:11:12;27.50;;;11.85;;
72649;SDS011;61467;50.674;4.618;2024-01-07T09:13:39;21.80;;;11.10;;
72649;SDS011;61467;50.674;4.618;2024-01-07T09:16:06;26.40;;;10.45;;
72649;SDS011;61467;50.674;4.618;2024-01-07T09:18:37;25.02;;;11.85;;
72649;SDS011;61467;50.674;4.618;2024-01-07T09:21:05;24.67;;;10.90;;
72649;SDS011;61467;50.674;4.618;2024-01-07T09:23:32;24.63;;;10.38;;
72649;SDS011;61467;50.674;4.618;2024-01-07T09:26:01;21.58;;;9.95;;
72649;SDS011;61467;50.674;4.618;2024-01-07T09:28:28;23.10;;;9.57;;
72649;SDS011;61467;50.674;4.618;2024-01-07T09:30:54;22.98;;;10.63;;
72649;SDS011;61467;50.674;4.618;2024-01-07T09:33:21;22.03;;;9.57;;
72649;SDS011;61467;50.674;4.618;2024-01-07T09:35:50;20.13;;;9.18;;
72649;SDS011;61467;50.674;4.618;2024-01-07T09:38:16;21.20;;;9.82;;
72649;SDS011;61467;50.674;4.618;2024-01-07T09:40:43;20.30;;;9.25;;
72649;SDS011;61467;50.674;4.618;2024-01-07T09:43:10;21.88;;;9.85;;
72649;SDS011;61467;50.674;4.618;2024-01-07T09:45:38;19.77;;;9.37;;
72649;SDS011;61467;50.674;4.618;2024-01-07T09:48:07;20.67;;;9.32;;
72649;SDS011;61467;50.674;4.618;2024-01-07T09:50:34;20.10;;;10.18;;
72649;SDS011;61467;50.674;4.618;2024-01-07T09:53:03;19.83;;;9.13;;
72649;SDS011;61467;50.674;4.618;2024-01-07T09:55:31;18.85;;;8.57;;
72649;SDS011;61467;50.674;4.618;2024-01-07T09:58:00;19.30;;;8.13;;
72649;SDS011;61467;50.674;4.618;2024-01-07T10:00:27;20.65;;;9.80;;
72649;SDS011;61467;50.674;4.618;2024-01-07T10:02:54;21.63;;;9.50;;
72649;SDS011;61467;50.674;4.618;2024-01-07T10:05:21;21.05;;;9.90;;
72649;SDS011;61467;50.674;4.618;2024-01-07T10:07:47;19.13;;;9.45;;
72649;SDS011;61467;50.674;4.618;2024-01-07T10:10:16;21.50;;;10.67;;
72649;SDS011;61467;50.674;4.618;2024-01-07T10:12:44;21.10;;;10.13;;
72649;SDS011;61467;50.674;4.618;2024-01-07T10:15:11;22.80;;;10.80;;
72649;SDS011;61467;50.674;4.618;2024-01-07T10:17:39;24.88;;;10.23;;
72649;SDS011;61467;50.674;4.618;2024-01-07T10:20:07;23.15;;;10.88;;
72649;SDS011;61467;50.674;4.618;2024-01-07T10:22:35;22.87;;;10.50;;
72649;SDS011;61467;50.674;4.618;2024-01-07T10:25:03;20.27;;;9.90;;
72649;SDS011;61467;50.674;4.618;2024-01-07T10:27:34;18.80;;;9.65;;
72649;SDS011;61467;50.674;4.618;2024-01-07T10:30:01;20.58;;;9.77;;
72649;SDS011;61467;50.674;4.618;2024-01-07T10:32:29;21.25;;;10.00;;
72649;SDS011;61467;50.674;4.618;2024-01-07T10:34:57;21.30;;;10.63;;
72649;SDS011;61467;50.674;4.618;2024-01-07T10:37:28;19.92;;;9.63;;
72649;SDS011;61467;50.674;4.618;2024-01-07T10:39:56;21.73;;;9.73;;
72649;SDS011;61467;50.674;4.618;2024-01-07T10:42:27;19.75;;;9.50;;
72649;SDS011;61467;50.674;4.618;2024-01-07T10:44:57;20.80;;;10.10;;
72649;SDS011;61467;50.674;4.618;2024-01-07T10:47:25;21.17;;;9.60;;
72649;SDS011;61467;50.674;4.618;2024-01-07T10:49:56;20.45;;;9.02;;
72649;SDS011;61467;50.674;4.618;2024-01-07T10:52:23;19.55;;;10.20;;
72649;SDS011;61467;50.674;4.618;2024-01-07T10:54:53;21.42;;;10.63;;
72649;SDS011;61467;50.674;4.618;2024-01-07T10:57:24;19.90;;;9.57;;
72649;SDS011;61467;50.674;4.618;2024-01-07T10:59:59;23.10;;;10.13;;
72649;SDS011;61467;50.674;4.618;2024-01-07T11:02:31;22.58;;;10.35;;
72649;SDS011;61467;50.674;4.618;2024-01-07T11:05:00;25.52;;;11.48;;
72649;SDS011;61467;50.674;4.618;2024-01-07T11:07:35;19.08;;;9.73;;
72649;SDS011;61467;50.674;4.618;2024-01-07T11:10:08;22.83;;;11.10;;
72649;SDS011;61467;50.674;4.618;2024-01-07T11:12:39;20.97;;;9.87;;
72649;SDS011;61467;50.674;4.618;2024-01-07T11:15:08;19.73;;;9.98;;
72649;SDS011;61467;50.674;4.618;2024-01-07T11:17:41;19.60;;;10.55;;
72649;SDS011;61467;50.674;4.618;2024-01-07T11:20:18;19.63;;;9.70;;
72649;SDS011;61467;50.674;4.618;2024-01-07T11:22:46;17.75;;;9.68;;
72649;SDS011;61467;50.674;4.618;2024-01-07T11:25:29;19.00;;;9.30;;
72649;SDS011;61467;50.674;4.618;2024-01-07T11:27:57;20.23;;;10.05;;
72649;SDS011;61467;50.674;4.618;2024-01-07T11:30:26;20.20;;;10.30;;
72649;SDS011;61467;50.674;4.618;2024-01-07T11:32:56;22.60;;;10.98;;
72649;SDS011;61467;50.674;4.618;2024-01-07T11:38:23;26.00;;;11.03;;
72649;SDS011;61467;50.674;4.618;2024-01-07T11:40:50;25.08;;;11.43;;
72649;SDS011;61467;50.674;4.618;2024-01-07T11:43:17;24.30;;;11.30;;
72649;SDS011;61467;50.674;4.618;2024-01-07T11:45:46;23.02;;;10.77;;
72649;SDS011;61467;50.674;4.618;2024-01-07T11:48:13;23.17;;;11.30;;
72649;SDS011;61467;50.674;4.618;2024-01-07T11:50:42;21.43;;;10.37;;
72649;SDS011;61467;50.674;4.618;2024-01-07T11:53:11;25.55;;;11.13;;
72649;SDS011;61467;50.674;4.618;2024-01-07T11:55:38;24.65;;;11.55;;
72649;SDS011;61467;50.674;4.618;2024-01-07T11:58:05;24.80;;;11.13;;
72649;SDS011;61467;50.674;4.618;2024-01-07T12:00:31;22.42;;;11.25;;
72649;SDS011;61467;50.674;4.618;2024-01-07T12:03:00;26.00;;;10.10;;
72649;SDS011;61467;50.674;4.618;2024-01-07T12:05:27;23.20;;;10.18;;
72649;SDS011;61467;50.674;4.618;2024-01-07T12:07:54;24.45;;;10.75;;
72649;SDS011;61467;50.674;4.618;2024-01-07T12:10:22;22.85;;;10.63;;
72649;SDS011;61467;50.674;4.618;2024-01-07T12:12:49;21.10;;;10.63;;
72649;SDS011;61467;50.674;4.618;2024-01-07T12:15:17;25.63;;;11.80;;
72649;SDS011;61467;50.674;4.618;2024-01-07T12:17:48;24.05;;;11.15;;
72649;SDS011;61467;50.674;4.618;2024-01-07T12:20:23;25.35;;;10.43;;
72649;SDS011;61467;50.674;4.618;2024-01-07T12:22:51;25.35;;;11.60;;
72649;SDS011;61467;50.674;4.618;2024-01-07T12:25:22;22.25;;;11.15;;
72649;SDS011;61467;50.674;4.618;2024-01-07T12:27:50;26.03;;;12.33;;
72649;SDS011;61467;50.674;4.618;2024-01-07T12:30:19;26.70;;;11.57;;
72649;SDS011;61467;50.674;4.618;2024-01-07T12:32:46;30.35;;;13.60;;
72649;SDS011;61467;50.674;4.618;2024-01-07T12:35:16;30.52;;;12.82;;
72649;SDS011;61467;50.674;4.618;2024-01-07T12:37:44;28.63;;;13.68;;
72649;SDS011;61467;50.674;4.618;2024-01-07T12:40:13;23.43;;;10.80;;
72649;SDS011;61467;50.674;4.618;2024-01-07T12:42:40;26.40;;;11.60;;
72649;SDS011;61467;50.674;4.618;2024-01-07T12:45:11;25.00;;;12.23;;
72649;SDS011;61467;50.674;4.618;2024-01-07T12:47:40;27.05;;;12.63;;
72649;SDS011;61467;50.674;4.618;2024-01-07T12:50:07;28.30;;;13.02;;
72649;SDS011;61467;50.674;4.618;2024-01-07T12:52:35;26.33;;;12.77;;
72649;SDS011;61467;50.674;4.618;2024-01-07T12:55:05;42.33;;;18.80;;
72649;SDS011;61467;50.674;4.618;2024-01-07T12:57:32;38.63;;;14.18;;
72649;SDS011;61467;50.674;4.618;2024-01-07T12:59:59;30.42;;;12.52;;
72649;SDS011;61467;50.674;4.618;2024-01-07T13:02:26;26.77;;;13.52;;
72649;SDS011;61467;50.674;4.618;2024-01-07T13:04:53;23.90;;;11.47;;
72649;SDS011;61467;50.674;4.618;2024-01-07T13:07:20;25.05;;;11.45;;
72649;SDS011;61467;50.674;4.618;2024-01-07T13:09:48;20.40;;;11.02;;
72649;SDS011;61467;50.674;4.618;2024-01-07T13:12:16;24.55;;;11.50;;
72649;SDS011;61467;50.674;4.618;2024-01-07T13:14:43;21.83;;;11.40;;
72649;SDS011;61467;50.674;4.618;2024-01-07T13:17:12;21.03;;;11.00;;
72649;SDS011;61467;50.674;4.618;2024-01-07T13:19:39;23.83;;;11.73;;
72649;SDS011;61467;50.674;4.618;2024-01-07T13:22:06;26.38;;;12.32;;
72649;SDS011;61467;50.674;4.618;2024-01-07T13:24:34;23.30;;;11.70;;
72649;SDS011;61467;50.674;4.618;2024-01-07T13:27:01;22.88;;;11.75;;
72649;SDS011;61467;50.674;4.618;2024-01-07T13:29:29;23.33;;;11.63;;
72649;SDS011;61467;50.674;4.618;2024-01-07T13:31:56;24.48;;;12.32;;
72649;SDS011;61467;50.674;4.618;2024-01-07T13:34:23;22.60;;;12.48;;
72649;SDS011;61467;50.674;4.618;2024-01-07T13:36:52;21.88;;;11.20;;
72649;SDS011;61467;50.674;4.618;2024-01-07T13:39:20;22.42;;;11.40;;
72649;SDS011;61467;50.674;4.618;2024-01-07T13:41:48;25.20;;;11.33;;
72649;SDS011;61467;50.674;4.618;2024-01-07T13:44:16;23.50;;;10.98;;
72649;SDS011;61467;50.674;4.618;2024-01-07T13:46:45;22.10;;;11.20;;
72649;SDS011;61467;50.674;4.618;2024-01-07T13:49:12;23.85;;;10.77;;
72649;SDS011;61467;50.674;4.618;2024-01-07T13:51:40;21.40;;;11.05;;
72649;SDS011;61467;50.674;4.618;2024-01-07T13:54:07;22.10;;;11.47;;
72649;SDS011;61467;50.674;4.618;2024-01-07T13:56:35;20.73;;;9.95;;
72649;SDS011;61467;50.674;4.618;2024-01-07T13:59:06;19.88;;;10.80;;
72649;SDS011;61467;50.674;4.618;2024-01-07T14:01:33;20.92;;;10.13;;
72649;SDS011;61467;50.674;4.618;2024-01-07T14:04:04;20.48;;;10.40;;
72649;SDS011;61467;50.674;4.618;2024-01-07T14:06:31;20.97;;;10.50;;
72649;SDS011;61467;50.674;4.618;2024-01-07T14:08:58;18.88;;;9.70;;
72649;SDS011;61467;50.674;4.618;2024-01-07T14:11:24;19.75;;;10.85;;
72649;SDS011;61467;50.674;4.618;2024-01-07T14:13:53;19.13;;;10.02;;
72649;SDS011;61467;50.674;4.618;2024-01-07T14:16:20;19.63;;;10.30;;
72649;SDS011;61467;50.674;4.618;2024-01-07T14:18:47;17.10;;;10.27;;
72649;SDS011;61467;50.674;4.618;2024-01-07T14:21:15;19.27;;;10.05;;
72649;SDS011;61467;50.674;4.618;2024-01-07T14:23:42;20.02;;;10.75;;
72649;SDS011;61467;50.674;4.618;2024-01-07T14:26:09;20.23;;;10.35;;
72649;SDS011;61467;50.674;4.618;2024-01-07T14:28:36;18.80;;;9.85;;
72649;SDS011;61467;50.674;4.618;2024-01-07T14:31:03;17.07;;;9.53;;